Terminal Aerodrome Forecast
Issued by NWS San Angelo, TX

Home | Current Version | Previous Version | Text Only | Print | Product List | Glossary On
Versions: 1 2 3 4 5 6 7 8 9 10 11 12 13 14 15 16 17 18 19 20 21
454
FTUS44 KSJT 191836 AAA
TAFSJT
TAF AMD
KSJT 191836Z 1919/2018 25023G33KT P6SM SKC
     FM200000 24013KT P6SM SKC
     FM200400 24014G20KT P6SM SKC
     FM201600 25017G26KT P6SM SCT250=

USA.gov is the U.S. government's official web portal to all federal, state and local government web resources and services.